sensor_id;sensor_type;location;lat;lon;timestamp;pressure;altitude;pressure_sealevel;temperature;humidity
74403;BME280;62837;51.082;13.744;2024-02-16T00:00:00;100474.17;;;9.76;81.42
74403;BME280;62837;51.082;13.744;2024-02-16T00:02:51;100469.73;;;9.82;80.84
74403;BME280;62837;51.082;13.744;2024-02-16T00:05:22;100472.31;;;9.84;80.04
74403;BME280;62837;51.082;13.744;2024-02-16T00:07:52;100468.22;;;9.82;80.94
74403;BME280;62837;51.082;13.744;2024-02-16T00:10:23;100471.66;;;9.88;80.47
74403;BME280;62837;51.082;13.744;2024-02-16T00:12:54;100466.77;;;9.87;79.66
74403;BME280;62837;51.082;13.744;2024-02-16T00:15:25;100460.64;;;9.85;79.42
74403;BME280;62837;51.082;13.744;2024-02-16T00:17:55;100463.80;;;9.83;79.09
74403;BME280;62837;51.082;13.744;2024-02-16T00:20:26;100454.20;;;9.81;79.21
74403;BME280;62837;51.082;13.744;2024-02-16T00:22:58;100450.93;;;9.79;78.98
74403;BME280;62837;51.082;13.744;2024-02-16T00:25:29;100448.43;;;9.78;79.60
74403;BME280;62837;51.082;13.744;2024-02-16T00:28:00;100448.38;;;9.80;79.35
74403;BME280;62837;51.082;13.744;2024-02-16T00:30:32;100440.25;;;9.81;79.58
74403;BME280;62837;51.082;13.744;2024-02-16T00:33:04;100435.92;;;9.86;79.75
74403;BME280;62837;51.082;13.744;2024-02-16T00:35:36;100431.21;;;9.90;79.35
74403;BME280;62837;51.082;13.744;2024-02-16T00:38:07;100431.91;;;9.89;79.26
74403;BME280;62837;51.082;13.744;2024-02-16T00:40:38;100428.42;;;9.85;78.33
74403;BME280;62837;51.082;13.744;2024-02-16T00:43:13;100425.83;;;9.75;77.80
74403;BME280;62837;51.082;13.744;2024-02-16T00:45:43;100430.84;;;9.65;77.64
74403;BME280;62837;51.082;13.744;2024-02-16T00:48:15;100427.80;;;9.56;78.80
74403;BME280;62837;51.082;13.744;2024-02-16T00:50:47;100432.16;;;9.51;78.23
74403;BME280;62837;51.082;13.744;2024-02-16T00:53:17;100431.45;;;9.50;78.97
74403;BME280;62837;51.082;13.744;2024-02-16T00:55:49;100432.37;;;9.53;79.14
74403;BME280;62837;51.082;13.744;2024-02-16T00:58:19;100427.77;;;9.58;78.87
74403;BME280;62837;51.082;13.744;2024-02-16T01:00:50;100421.99;;;9.58;78.77
74403;BME280;62837;51.082;13.744;2024-02-16T01:03:22;100422.09;;;9.59;78.41
74403;BME280;62837;51.082;13.744;2024-02-16T01:05:54;100417.26;;;9.56;78.38
74403;BME280;62837;51.082;13.744;2024-02-16T01:08:25;100412.77;;;9.54;78.28
74403;BME280;62837;51.082;13.744;2024-02-16T01:10:57;100413.09;;;9.49;77.65
74403;BME280;62837;51.082;13.744;2024-02-16T01:13:28;100408.98;;;9.39;77.72
74403;BME280;62837;51.082;13.744;2024-02-16T01:15:59;100403.83;;;9.32;78.09
74403;BME280;62837;51.082;13.744;2024-02-16T01:18:30;100397.98;;;9.27;78.34
74403;BME280;62837;51.082;13.744;2024-02-16T01:21:02;100393.98;;;9.24;78.25
74403;BME280;62837;51.082;13.744;2024-02-16T01:23:34;100401.09;;;9.22;78.64
74403;BME280;62837;51.082;13.744;2024-02-16T01:26:05;100400.54;;;9.26;77.84
74403;BME280;62837;51.082;13.744;2024-02-16T01:28:35;100409.81;;;9.16;77.30
74403;BME280;62837;51.082;13.744;2024-02-16T01:31:06;100415.80;;;9.09;77.90
74403;BME280;62837;51.082;13.744;2024-02-16T01:33:39;100417.44;;;9.05;78.68
74403;BME280;62837;51.082;13.744;2024-02-16T01:36:10;100416.82;;;9.02;78.63
74403;BME280;62837;51.082;13.744;2024-02-16T01:38:41;100413.60;;;9.03;78.29
74403;BME280;62837;51.082;13.744;2024-02-16T01:41:12;100413.16;;;9.02;78.83
74403;BME280;62837;51.082;13.744;2024-02-16T01:43:44;100413.44;;;8.99;78.85
74403;BME280;62837;51.082;13.744;2024-02-16T01:46:15;100417.14;;;9.00;79.00
74403;BME280;62837;51.082;13.744;2024-02-16T01:48:46;100417.15;;;9.01;79.32
74403;BME280;62837;51.082;13.744;2024-02-16T01:51:17;100413.98;;;9.02;79.38
74403;BME280;62837;51.082;13.744;2024-02-16T01:53:49;100410.02;;;9.08;79.60
74403;BME280;62837;51.082;13.744;2024-02-16T01:56:19;100410.20;;;9.13;79.82
74403;BME280;62837;51.082;13.744;2024-02-16T01:58:51;100405.27;;;9.16;79.53
74403;BME280;62837;51.082;13.744;2024-02-16T02:01:22;100403.08;;;9.17;79.08
74403;BME280;62837;51.082;13.744;2024-02-16T02:03:53;100396.67;;;9.11;79.10
74403;BME280;62837;51.082;13.744;2024-02-16T02:06:24;100395.41;;;9.06;79.94
74403;BME280;62837;51.082;13.744;2024-02-16T02:08:55;100389.95;;;9.04;80.19
74403;BME280;62837;51.082;13.744;2024-02-16T02:11:26;100389.05;;;9.11;80.65
74403;BME280;62837;51.082;13.744;2024-02-16T02:13:56;100390.31;;;9.21;81.11
74403;BME280;62837;51.082;13.744;2024-02-16T02:16:27;100388.15;;;9.34;81.73
74403;BME280;62837;51.082;13.744;2024-02-16T02:19:06;100389.24;;;9.47;82.15
74403;BME280;62837;51.082;13.744;2024-02-16T02:21:37;100384.30;;;9.59;82.23
74403;BME280;62837;51.082;13.744;2024-02-16T02:24:08;100376.04;;;9.69;82.38
74403;BME280;62837;51.082;13.744;2024-02-16T02:26:41;100376.17;;;9.78;82.47
74403;BME280;62837;51.082;13.744;2024-02-16T02:29:11;100368.51;;;9.88;82.54
74403;BME280;62837;51.082;13.744;2024-02-16T02:31:42;100369.89;;;9.98;82.50
74403;BME280;62837;51.082;13.744;2024-02-16T02:34:13;100365.16;;;10.06;82.31
74403;BME280;62837;51.082;13.744;2024-02-16T02:36:44;100363.71;;;10.14;82.34
74403;BME280;62837;51.082;13.744;2024-02-16T02:39:15;100365.69;;;10.20;82.07
74403;BME280;62837;51.082;13.744;2024-02-16T02:41:46;100370.48;;;10.26;81.97
74403;BME280;62837;51.082;13.744;2024-02-16T02:44:17;100369.38;;;10.30;81.99
74403;BME280;62837;51.082;13.744;2024-02-16T02:46:49;100367.53;;;10.37;81.80
74403;BME280;62837;51.082;13.744;2024-02-16T02:49:20;100365.77;;;10.42;81.61
74403;BME280;62837;51.082;13.744;2024-02-16T02:51:51;100363.55;;;10.46;81.56
74403;BME280;62837;51.082;13.744;2024-02-16T02:54:23;100359.32;;;10.50;81.36
74403;BME280;62837;51.082;13.744;2024-02-16T02:56:53;100360.50;;;10.53;81.07
74403;BME280;62837;51.082;13.744;2024-02-16T02:59:24;100360.97;;;10.56;81.17
74403;BME280;62837;51.082;13.744;2024-02-16T03:01:55;100363.21;;;10.61;81.17
74403;BME280;62837;51.082;13.744;2024-02-16T03:04:26;100366.49;;;10.64;80.95
74403;BME280;62837;51.082;13.744;2024-02-16T03:06:57;100368.83;;;10.67;80.85
74403;BME280;62837;51.082;13.744;2024-02-16T03:09:27;100371.77;;;10.71;80.86
74403;BME280;62837;51.082;13.744;2024-02-16T03:11:58;100370.92;;;10.73;80.65
74403;BME280;62837;51.082;13.744;2024-02-16T03:14:29;100374.80;;;10.76;80.28
74403;BME280;62837;51.082;13.744;2024-02-16T03:17:00;100373.15;;;10.76;80.16
74403;BME280;62837;51.082;13.744;2024-02-16T03:19:31;100369.38;;;10.78;80.13
74403;BME280;62837;51.082;13.744;2024-02-16T03:22:02;100367.77;;;10.81;79.90
74403;BME280;62837;51.082;13.744;2024-02-16T03:24:33;100360.61;;;10.83;79.88
74403;BME280;62837;51.082;13.744;2024-02-16T03:27:04;100362.67;;;10.85;79.80
74403;BME280;62837;51.082;13.744;2024-02-16T03:29:35;100360.22;;;10.87;79.62
74403;BME280;62837;51.082;13.744;2024-02-16T03:32:06;100362.41;;;10.88;79.40
74403;BME280;62837;51.082;13.744;2024-02-16T03:34:37;100361.11;;;10.89;79.15
74403;BME280;62837;51.082;13.744;2024-02-16T03:37:08;100359.99;;;10.88;79.25
74403;BME280;62837;51.082;13.744;2024-02-16T03:39:39;100358.27;;;10.90;79.31
74403;BME280;62837;51.082;13.744;2024-02-16T03:42:10;100362.21;;;10.89;79.17
74403;BME280;62837;51.082;13.744;2024-02-16T03:44:43;100363.23;;;10.87;79.25
74403;BME280;62837;51.082;13.744;2024-02-16T03:47:15;100365.52;;;10.89;79.09
74403;BME280;62837;51.082;13.744;2024-02-16T03:49:46;100366.48;;;10.90;78.91
74403;BME280;62837;51.082;13.744;2024-02-16T03:52:17;100370.55;;;10.90;79.01
74403;BME280;62837;51.082;13.744;2024-02-16T03:54:48;100372.13;;;10.89;78.60
74403;BME280;62837;51.082;13.744;2024-02-16T03:57:20;100371.96;;;10.89;78.74
74403;BME280;62837;51.082;13.744;2024-02-16T03:59:50;100374.38;;;10.89;78.77
74403;BME280;62837;51.082;13.744;2024-02-16T04:02:21;100376.24;;;10.89;78.35
74403;BME280;62837;51.082;13.744;2024-02-16T04:04:52;100375.45;;;10.87;78.38
74403;BME280;62837;51.082;13.744;2024-02-16T04:07:23;100376.20;;;10.85;78.44
74403;BME280;62837;51.082;13.744;2024-02-16T04:09:54;100372.77;;;10.83;78.24
74403;BME280;62837;51.082;13.744;2024-02-16T04:12:25;100376.83;;;10.82;78.52
74403;BME280;62837;51.082;13.744;2024-02-16T04:14:56;100381.45;;;10.81;78.41
74403;BME280;62837;51.082;13.744;2024-02-16T04:17:28;100381.17;;;10.79;78.50
74403;BME280;62837;51.082;13.744;2024-02-16T04:19:59;100377.41;;;10.78;78.61
74403;BME280;62837;51.082;13.744;2024-02-16T04:22:30;100376.23;;;10.77;78.49
74403;BME280;62837;51.082;13.744;2024-02-16T04:25:08;100373.11;;;10.76;78.41
74403;BME280;62837;51.082;13.744;2024-02-16T04:27:41;100375.61;;;10.74;78.32
74403;BME280;62837;51.082;13.744;2024-02-16T04:30:14;100376.54;;;10.73;78.35
74403;BME280;62837;51.082;13.744;2024-02-16T04:32:45;100376.23;;;10.71;78.31
74403;BME280;62837;51.082;13.744;2024-02-16T04:35:16;100374.91;;;10.69;78.53
74403;BME280;62837;51.082;13.744;2024-02-16T04:37:47;100375.17;;;10.69;78.49
74403;BME280;62837;51.082;13.744;2024-02-16T04:40:19;100373.48;;;10.67;78.32
74403;BME280;62837;51.082;13.744;2024-02-16T04:42:51;100377.77;;;10.63;78.26
74403;BME280;62837;51.082;13.744;2024-02-16T04:45:22;100373.88;;;10.59;78.43
74403;BME280;62837;51.082;13.744;2024-02-16T04:47:53;100371.42;;;10.58;78.36
74403;BME280;62837;51.082;13.744;2024-02-16T04:50:25;100373.30;;;10.58;78.27
74403;BME280;62837;51.082;13.744;2024-02-16T04:52:56;100374.44;;;10.55;78.33
74403;BME280;62837;51.082;13.744;2024-02-16T04:55:30;100373.91;;;10.53;78.38
74403;BME280;62837;51.082;13.744;2024-02-16T04:57:59;100375.05;;;10.52;78.37
74403;BME280;62837;51.082;13.744;2024-02-16T05:00:31;100368.28;;;10.50;78.24
74403;BME280;62837;51.082;13.744;2024-02-16T05:03:03;100372.50;;;10.49;78.36
74403;BME280;62837;51.082;13.744;2024-02-16T05:05:34;100367.88;;;10.49;78.29
74403;BME280;62837;51.082;13.744;2024-02-16T05:08:06;100370.33;;;10.48;78.44
74403;BME280;62837;51.082;13.744;2024-02-16T05:10:37;100372.25;;;10.48;78.41
74403;BME280;62837;51.082;13.744;2024-02-16T05:13:08;100371.65;;;10.48;78.32
74403;BME280;62837;51.082;13.744;2024-02-16T05:15:41;100374.29;;;10.48;78.32
74403;BME280;62837;51.082;13.744;2024-02-16T05:18:12;100366.64;;;10.46;78.24
74403;BME280;62837;51.082;13.744;2024-02-16T05:20:43;100370.75;;;10.46;78.34
74403;BME280;62837;51.082;13.744;2024-02-16T05:23:13;100369.47;;;10.43;78.18
74403;BME280;62837;51.082;13.744;2024-02-16T05:25:44;100370.95;;;10.43;78.46
74403;BME280;62837;51.082;13.744;2024-02-16T05:28:15;100373.93;;;10.44;78.15
74403;BME280;62837;51.082;13.744;2024-02-16T05:30:46;100372.15;;;10.43;78.24
74403;BME280;62837;51.082;13.744;2024-02-16T05:33:17;100371.48;;;10.42;78.17
74403;BME280;62837;51.082;13.744;2024-02-16T05:35:51;100377.77;;;10.43;78.21
74403;BME280;62837;51.082;13.744;2024-02-16T05:38:25;100371.88;;;10.43;77.93
74403;BME280;62837;51.082;13.744;2024-02-16T05:41:05;100373.09;;;10.43;77.94
74403;BME280;62837;51.082;13.744;2024-02-16T05:43:36;100370.29;;;10.43;78.01
74403;BME280;62837;51.082;13.744;2024-02-16T05:46:07;100370.39;;;10.42;77.90
74403;BME280;62837;51.082;13.744;2024-02-16T05:48:43;100363.77;;;10.40;77.80
74403;BME280;62837;51.082;13.744;2024-02-16T05:51:14;100371.25;;;10.42;77.96
74403;BME280;62837;51.082;13.744;2024-02-16T05:53:45;100368.90;;;10.43;77.65
74403;BME280;62837;51.082;13.744;2024-02-16T05:56:16;100361.92;;;10.43;77.55
74403;BME280;62837;51.082;13.744;2024-02-16T05:58:47;100357.79;;;10.42;77.57
74403;BME280;62837;51.082;13.744;2024-02-16T06:01:19;100361.48;;;10.42;77.34
74403;BME280;62837;51.082;13.744;2024-02-16T06:03:50;100365.25;;;10.41;77.54
74403;BME280;62837;51.082;13.744;2024-02-16T06:06:21;100360.98;;;10.42;77.53
74403;BME280;62837;51.082;13.744;2024-02-16T06:08:52;100357.61;;;10.41;77.31
74403;BME280;62837;51.082;13.744;2024-02-16T06:11:23;100358.55;;;10.41;77.31
74403;BME280;62837;51.082;13.744;2024-02-16T06:13:54;100360.27;;;10.41;77.27
74403;BME280;62837;51.082;13.744;2024-02-16T06:16:25;100363.94;;;10.42;77.20
74403;BME280;62837;51.082;13.744;2024-02-16T06:18:55;100360.70;;;10.41;76.91
74403;BME280;62837;51.082;13.744;2024-02-16T06:21:26;100360.80;;;10.42;76.90
74403;BME280;62837;51.082;13.744;2024-02-16T06:23:58;100365.73;;;10.38;76.36
74403;BME280;62837;51.082;13.744;2024-02-16T06:26:29;100365.69;;;10.34;76.95
74403;BME280;62837;51.082;13.744;2024-02-16T06:29:00;100368.92;;;10.45;79.08
74403;BME280;62837;51.082;13.744;2024-02-16T06:31:30;100365.69;;;10.67;79.60
74403;BME280;62837;51.082;13.744;2024-02-16T06:34:01;100369.77;;;10.86;78.81
74403;BME280;62837;51.082;13.744;2024-02-16T06:36:33;100380.05;;;11.04;78.55
74403;BME280;62837;51.082;13.744;2024-02-16T06:39:04;100383.27;;;11.20;78.67
74403;BME280;62837;51.082;13.744;2024-02-16T06:41:34;100389.23;;;11.20;75.47
74403;BME280;62837;51.082;13.744;2024-02-16T06:44:07;100389.61;;;11.07;74.29
74403;BME280;62837;51.082;13.744;2024-02-16T06:46:38;100398.27;;;10.91;74.30
74403;BME280;62837;51.082;13.744;2024-02-16T06:49:09;100402.80;;;10.77;74.07
74403;BME280;62837;51.082;13.744;2024-02-16T06:51:40;100401.02;;;10.63;74.01
74403;BME280;62837;51.082;13.744;2024-02-16T06:54:12;100390.27;;;10.50;74.04
74403;BME280;62837;51.082;13.744;2024-02-16T06:56:44;100383.91;;;10.37;74.21
74403;BME280;62837;51.082;13.744;2024-02-16T06:59:15;100384.70;;;10.28;74.26
74403;BME280;62837;51.082;13.744;2024-02-16T07:01:47;100378.64;;;10.20;74.36
74403;BME280;62837;51.082;13.744;2024-02-16T07:04:18;100373.73;;;10.11;74.54
74403;BME280;62837;51.082;13.744;2024-02-16T07:06:48;100378.56;;;10.06;74.92
74403;BME280;62837;51.082;13.744;2024-02-16T07:09:20;100376.52;;;10.05;74.67
74403;BME280;62837;51.082;13.744;2024-02-16T07:11:51;100384.94;;;10.10;74.84
74403;BME280;62837;51.082;13.744;2024-02-16T07:14:23;100387.87;;;10.13;74.49
74403;BME280;62837;51.082;13.744;2024-02-16T07:16:53;100386.61;;;10.23;74.45
74403;BME280;62837;51.082;13.744;2024-02-16T07:19:24;100388.29;;;10.41;74.12
74403;BME280;62837;51.082;13.744;2024-02-16T07:21:55;100383.62;;;10.46;73.68
74403;BME280;62837;51.082;13.744;2024-02-16T07:24:26;100380.64;;;10.44;73.60
74403;BME280;62837;51.082;13.744;2024-02-16T07:27:07;100383.27;;;10.50;73.42
74403;BME280;62837;51.082;13.744;2024-02-16T07:29:42;100384.73;;;10.71;73.33
74403;BME280;62837;51.082;13.744;2024-02-16T07:32:13;100383.45;;;10.96;72.64
74403;BME280;62837;51.082;13.744;2024-02-16T07:34:48;100387.41;;;11.21;72.39
74403;BME280;62837;51.082;13.744;2024-02-16T07:37:19;100384.48;;;11.50;71.70
74403;BME280;62837;51.082;13.744;2024-02-16T07:39:49;100389.98;;;11.74;70.66
74403;BME280;62837;51.082;13.744;2024-02-16T07:42:21;100380.89;;;11.79;69.89
74403;BME280;62837;51.082;13.744;2024-02-16T07:44:54;100379.54;;;11.69;70.02
74403;BME280;62837;51.082;13.744;2024-02-16T07:47:25;100382.29;;;11.58;69.76
74403;BME280;62837;51.082;13.744;2024-02-16T07:49:57;100374.79;;;11.50;69.91
74403;BME280;62837;51.082;13.744;2024-02-16T07:52:28;100386.53;;;11.52;69.78
74403;BME280;62837;51.082;13.744;2024-02-16T07:54:59;100383.92;;;11.66;69.83
74403;BME280;62837;51.082;13.744;2024-02-16T07:57:29;100389.48;;;11.63;69.64
74403;BME280;62837;51.082;13.744;2024-02-16T08:00:00;100388.77;;;11.57;69.46
74403;BME280;62837;51.082;13.744;2024-02-16T08:02:53;100392.44;;;11.59;69.21
74403;BME280;62837;51.082;13.744;2024-02-16T08:05:23;100386.91;;;11.58;69.42
74403;BME280;62837;51.082;13.744;2024-02-16T08:07:56;100385.37;;;11.76;69.09
74403;BME280;62837;51.082;13.744;2024-02-16T08:10:27;100380.79;;;12.01;68.56
74403;BME280;62837;51.082;13.744;2024-02-16T08:12:58;100375.99;;;12.28;68.31
74403;BME280;62837;51.082;13.744;2024-02-16T08:15:29;100379.54;;;12.56;67.37
74403;BME280;62837;51.082;13.744;2024-02-16T08:18:00;100378.91;;;12.69;66.98
74403;BME280;62837;51.082;13.744;2024-02-16T08:20:31;100381.40;;;12.76;66.64
74403;BME280;62837;51.082;13.744;2024-02-16T08:23:02;100381.20;;;12.96;66.32
74403;BME280;62837;51.082;13.744;2024-02-16T08:25:33;100383.80;;;13.06;65.87
74403;BME280;62837;51.082;13.744;2024-02-16T08:28:06;100382.29;;;13.12;65.84
74403;BME280;62837;51.082;13.744;2024-02-16T08:30:36;100381.25;;;13.01;65.65
74403;BME280;62837;51.082;13.744;2024-02-16T08:33:11;100381.14;;;12.90;65.62
74403;BME280;62837;51.082;13.744;2024-02-16T08:35:43;100387.02;;;12.76;65.56
74403;BME280;62837;51.082;13.744;2024-02-16T08:38:14;100379.00;;;12.62;65.65
74403;BME280;62837;51.082;13.744;2024-02-16T08:40:45;100381.73;;;12.45;65.59
74403;BME280;62837;51.082;13.744;2024-02-16T08:43:17;100384.59;;;12.31;65.81
74403;BME280;62837;51.082;13.744;2024-02-16T08:45:48;100383.94;;;12.17;66.03
74403;BME280;62837;51.082;13.744;2024-02-16T08:48:19;100376.40;;;12.06;66.42
74403;BME280;62837;51.082;13.744;2024-02-16T08:50:50;100384.52;;;11.99;66.48
74403;BME280;62837;51.082;13.744;2024-02-16T08:53:21;100379.54;;;11.94;66.62
74403;BME280;62837;51.082;13.744;2024-02-16T08:55:52;100379.12;;;11.86;66.74
74403;BME280;62837;51.082;13.744;2024-02-16T08:58:23;100384.43;;;11.81;66.82
74403;BME280;62837;51.082;13.744;2024-02-16T09:00:54;100388.70;;;11.85;66.96
74403;BME280;62837;51.082;13.744;2024-02-16T09:03:24;100386.13;;;11.91;66.92
74403;BME280;62837;51.082;13.744;2024-02-16T09:05:56;100380.84;;;12.00;66.86
74403;BME280;62837;51.082;13.744;2024-02-16T09:08:26;100379.88;;;12.09;66.87
74403;BME280;62837;51.082;13.744;2024-02-16T09:11:00;100381.55;;;12.13;66.82
74403;BME280;62837;51.082;13.744;2024-02-16T09:13:35;100381.78;;;12.17;66.53
74403;BME280;62837;51.082;13.744;2024-02-16T09:16:10;100373.88;;;12.22;66.51
74403;BME280;62837;51.082;13.744;2024-02-16T09:18:41;100379.48;;;12.33;66.57
74403;BME280;62837;51.082;13.744;2024-02-16T09:21:12;100380.94;;;12.45;65.95
74403;BME280;62837;51.082;13.744;2024-02-16T09:23:42;100384.78;;;12.53;65.96
74403;BME280;62837;51.082;13.744;2024-02-16T09:26:13;100392.95;;;12.60;65.78
74403;BME280;62837;51.082;13.744;2024-02-16T09:28:45;100399.40;;;12.58;65.46
74403;BME280;62837;51.082;13.744;2024-02-16T09:31:16;100393.16;;;12.53;65.44
74403;BME280;62837;51.082;13.744;2024-02-16T09:33:47;100394.02;;;12.47;65.69
74403;BME280;62837;51.082;13.744;2024-02-16T09:36:21;100395.11;;;12.41;65.40
74403;BME280;62837;51.082;13.744;2024-02-16T09:38:52;100392.21;;;12.34;65.58
74403;BME280;62837;51.082;13.744;2024-02-16T09:41:24;100394.90;;;12.30;65.59
74403;BME280;62837;51.082;13.744;2024-02-16T09:43:54;100395.88;;;12.25;65.39
74403;BME280;62837;51.082;13.744;2024-02-16T09:46:25;100393.42;;;12.19;65.59
74403;BME280;62837;51.082;13.744;2024-02-16T09:48:58;100395.23;;;12.15;65.65
74403;BME280;62837;51.082;13.744;2024-02-16T09:51:35;100395.52;;;12.14;65.60
74403;BME280;62837;51.082;13.744;2024-02-16T09:54:06;100393.36;;;12.14;66.32
74403;BME280;62837;51.082;13.744;2024-02-16T09:56:37;100396.23;;;12.26;69.43
74403;BME280;62837;51.082;13.744;2024-02-16T09:59:08;100404.23;;;12.50;66.78
74403;BME280;62837;51.082;13.744;2024-02-16T10:01:39;100388.61;;;12.68;65.06
74403;BME280;62837;51.082;13.744;2024-02-16T10:04:10;100392.77;;;12.81;64.97
74403;BME280;62837;51.082;13.744;2024-02-16T10:06:48;100393.48;;;12.86;64.79
74403;BME280;62837;51.082;13.744;2024-02-16T10:09:29;100395.43;;;12.86;64.41
74403;BME280;62837;51.082;13.744;2024-02-16T10:12:02;100390.73;;;12.81;64.44
74403;BME280;62837;51.082;13.744;2024-02-16T10:14:35;100388.92;;;12.79;64.64
74403;BME280;62837;51.082;13.744;2024-02-16T10:17:07;100392.05;;;12.77;64.60
74403;BME280;62837;51.082;13.744;2024-02-16T10:19:39;100392.05;;;12.75;64.60
74403;BME280;62837;51.082;13.744;2024-02-16T10:22:12;100398.89;;;12.72;64.31
74403;BME280;62837;51.082;13.744;2024-02-16T10:24:43;100388.39;;;12.67;63.98
74403;BME280;62837;51.082;13.744;2024-02-16T10:27:18;100381.82;;;12.62;64.03
74403;BME280;62837;51.082;13.744;2024-02-16T10:29:50;100384.29;;;12.57;64.10
74403;BME280;62837;51.082;13.744;2024-02-16T10:32:25;100382.06;;;12.51;64.05
74403;BME280;62837;51.082;13.744;2024-02-16T10:34:56;100383.33;;;12.48;64.18
74403;BME280;62837;51.082;13.744;2024-02-16T10:37:28;100385.70;;;12.44;64.11
74403;BME280;62837;51.082;13.744;2024-02-16T10:40:00;100385.73;;;12.42;64.34
74403;BME280;62837;51.082;13.744;2024-02-16T10:42:32;100386.00;;;12.40;64.38
74403;BME280;62837;51.082;13.744;2024-02-16T10:45:06;100380.05;;;12.39;64.38
74403;BME280;62837;51.082;13.744;2024-02-16T10:47:37;100382.52;;;12.40;64.61
74403;BME280;62837;51.082;13.744;2024-02-16T10:50:09;100387.40;;;12.42;64.59
74403;BME280;62837;51.082;13.744;2024-02-16T10:52:43;100393.03;;;12.47;64.60
74403;BME280;62837;51.082;13.744;2024-02-16T10:55:15;100388.63;;;12.50;64.60
74403;BME280;62837;51.082;13.744;2024-02-16T10:57:47;100382.02;;;12.54;64.63
74403;BME280;62837;51.082;13.744;2024-02-16T11:00:19;100382.15;;;12.59;64.51
74403;BME280;62837;51.082;13.744;2024-02-16T11:02:54;100384.58;;;12.62;64.64
74403;BME280;62837;51.082;13.744;2024-02-16T11:05:36;100376.30;;;12.63;63.88
74403;BME280;62837;51.082;13.744;2024-02-16T11:08:14;100371.50;;;12.63;64.00
74403;BME280;62837;51.082;13.744;2024-02-16T11:10:57;100372.66;;;12.65;63.68
74403;BME280;62837;51.082;13.744;2024-02-16T11:13:32;100375.20;;;12.64;63.81
74403;BME280;62837;51.082;13.744;2024-02-16T11:16:06;100372.94;;;12.69;63.63
74403;BME280;62837;51.082;13.744;2024-02-16T11:18:41;100372.73;;;12.72;63.84
74403;BME280;62837;51.082;13.744;2024-02-16T11:21:15;100376.77;;;12.73;63.54
74403;BME280;62837;51.082;13.744;2024-02-16T11:23:47;100369.04;;;12.72;63.37
74403;BME280;62837;51.082;13.744;2024-02-16T11:26:19;100379.86;;;12.69;63.38
74403;BME280;62837;51.082;13.744;2024-02-16T11:28:50;100368.42;;;12.67;63.40
74403;BME280;62837;51.082;13.744;2024-02-16T11:31:20;100364.45;;;12.64;63.56
74403;BME280;62837;51.082;13.744;2024-02-16T11:33:52;100362.02;;;12.65;63.72
74403;BME280;62837;51.082;13.744;2024-02-16T11:36:23;100357.48;;;12.66;63.61
74403;BME280;62837;51.082;13.744;2024-02-16T11:38:54;100357.98;;;12.65;63.87
74403;BME280;62837;51.082;13.744;2024-02-16T11:41:25;100345.56;;;12.66;63.80
74403;BME280;62837;51.082;13.744;2024-02-16T11:44:03;100353.68;;;12.63;63.46
74403;BME280;62837;51.082;13.744;2024-02-16T11:46:34;100349.43;;;12.60;63.52
74403;BME280;62837;51.082;13.744;2024-02-16T11:49:09;100352.57;;;12.58;63.40
74403;BME280;62837;51.082;13.744;2024-02-16T11:51:40;100350.98;;;12.55;63.60
74403;BME280;62837;51.082;13.744;2024-02-16T11:54:11;100344.61;;;12.53;63.67
74403;BME280;62837;51.082;13.744;2024-02-16T11:56:44;100348.75;;;12.51;63.66
74403;BME280;62837;51.082;13.744;2024-02-16T11:59:16;100346.33;;;12.49;63.64
74403;BME280;62837;51.082;13.744;2024-02-16T12:01:55;100341.02;;;12.47;63.67
74403;BME280;62837;51.082;13.744;2024-02-16T12:04:27;100347.73;;;12.45;63.70
74403;BME280;62837;51.082;13.744;2024-02-16T12:06:59;100343.11;;;12.44;63.80
74403;BME280;62837;51.082;13.744;2024-02-16T12:09:34;100345.59;;;12.47;63.72
74403;BME280;62837;51.082;13.744;2024-02-16T12:12:07;100347.80;;;12.47;63.56
74403;BME280;62837;51.082;13.744;2024-02-16T12:14:38;100351.27;;;12.46;63.40
74403;BME280;62837;51.082;13.744;2024-02-16T12:17:09;100348.91;;;12.47;63.58
74403;BME280;62837;51.082;13.744;2024-02-16T12:19:44;100355.16;;;12.52;63.60
74403;BME280;62837;51.082;13.744;2024-02-16T12:22:19;100361.17;;;12.59;63.39
74403;BME280;62837;51.082;13.744;2024-02-16T12:24:50;100363.95;;;12.66;62.89
74403;BME280;62837;51.082;13.744;2024-02-16T12:27:21;100362.73;;;12.72;62.83
74403;BME280;62837;51.082;13.744;2024-02-16T12:29:53;100369.33;;;12.83;62.69
74403;BME280;62837;51.082;13.744;2024-02-16T12:32:23;100365.30;;;13.00;62.03
74403;BME280;62837;51.082;13.744;2024-02-16T12:34:54;100356.16;;;13.13;61.71
74403;BME280;62837;51.082;13.744;2024-02-16T12:37:27;100359.04;;;13.27;61.70
74403;BME280;62837;51.082;13.744;2024-02-16T12:39:58;100359.84;;;13.39;61.39
74403;BME280;62837;51.082;13.744;2024-02-16T12:42:29;100361.27;;;13.49;60.93
74403;BME280;62837;51.082;13.744;2024-02-16T12:45:01;100360.05;;;13.53;60.62
74403;BME280;62837;51.082;13.744;2024-02-16T12:47:32;100356.01;;;13.57;60.72
74403;BME280;62837;51.082;13.744;2024-02-16T12:50:03;100359.54;;;13.61;60.58
74403;BME280;62837;51.082;13.744;2024-02-16T12:52:34;100348.75;;;13.62;60.26
74403;BME280;62837;51.082;13.744;2024-02-16T12:55:19;100346.98;;;13.63;60.40
74403;BME280;62837;51.082;13.744;2024-02-16T12:57:50;100350.34;;;13.67;59.95
74403;BME280;62837;51.082;13.744;2024-02-16T13:00:22;100342.77;;;13.70;59.87
74403;BME280;62837;51.082;13.744;2024-02-16T13:02:53;100349.83;;;13.74;59.80
74403;BME280;62837;51.082;13.744;2024-02-16T13:05:23;100341.52;;;13.77;59.63